Time;durP1;ratioP1;P1;durP2;ratioP2;P2;SDS_P1;SDS_P2;PMS_P1;PMS_P2;Temp;Humidity;BMP_temperature;BMP_pressure;BME280_temperature;BME280_humidity;BME280_pressure;Samples;Min_cycle;Max_cycle;Signal;HPM_P1;HPM_P2
2022/01/29 00:00:22;;;;;;;;;;;22.90;53.30;;;;;;5099982;28;1023;-46
2022/01/29 00:02:49;;;;;;;;;;;22.90;53.30;;;;;;5100332;28;1019;-46
2022/01/29 00:05:16;;;;;;;;;;;22.80;53.30;;;;;;5100541;28;985;-47
2022/01/29 00:07:42;;;;;;;;;;;22.80;53.30;;;;;;5100572;28;1988;-46
2022/01/29 00:10:09;;;;;;;;;;;22.80;53.50;;;;;;5099937;28;985;-46
2022/01/29 00:12:38;;;;;;;;;;;22.80;53.50;;;;;;5100480;28;965;-45
2022/01/29 00:15:05;;;;;;;;;;;22.80;53.50;;;;;;5100368;28;1016;-45
2022/01/29 00:17:32;;;;;;;;;;;22.70;53.50;;;;;;5099020;28;1444;-42
2022/01/29 00:19:59;;;;;;;;;;;22.70;53.50;;;;;;5100285;28;996;-44
2022/01/29 00:22:25;;;;;;;;;;;22.70;53.50;;;;;;5099880;28;997;-42
2022/01/29 00:24:52;;;;;;;;;;;22.70;53.60;;;;;;5100286;28;1011;-42
2022/01/29 00:27:21;;;;;;;;;;;22.70;53.50;;;;;;5100270;28;1975;-41
2022/01/29 00:29:49;;;;;;;;;;;22.70;53.50;;;;;;5099739;28;947;-41
2022/01/29 00:32:16;;;;;;;;;;;22.60;53.50;;;;;;5099601;28;947;-42
2022/01/29 00:34:42;;;;;;;;;;;22.60;53.40;;;;;;5099984;28;967;-42
2022/01/29 00:37:09;;;;;;;;;;;22.60;53.50;;;;;;5099762;28;932;-41
2022/01/29 00:39:36;;;;;;;;;;;22.60;53.50;;;;;;5099978;28;968;-41
2022/01/29 00:42:03;;;;;;;;;;;22.60;53.50;;;;;;5100036;28;1012;-41
2022/01/29 00:44:30;;;;;;;;;;;22.60;53.50;;;;;;5100271;28;936;-42
2022/01/29 00:46:58;;;;;;;;;;;22.60;53.50;;;;;;5099617;28;2008;-42
2022/01/29 00:49:25;;;;;;;;;;;22.60;53.40;;;;;;5099734;28;1089;-41
2022/01/29 00:51:52;;;;;;;;;;;22.60;53.40;;;;;;5098952;28;994;-41
2022/01/29 00:54:19;;;;;;;;;;;22.60;54.50;;;;;;5098779;28;988;-41
2022/01/29 00:56:45;;;;;;;;;;;22.60;53.30;;;;;;5099031;28;976;-41
2022/01/29 00:59:12;;;;;;;;;;;22.60;53.40;;;;;;5098791;28;1016;-42
2022/01/29 01:01:39;;;;;;;;;;;22.50;53.30;;;;;;5098683;28;981;-41
2022/01/29 01:04:07;;;;;;;;;;;22.60;53.30;;;;;;5098664;28;1000;-42
2022/01/29 01:06:34;;;;;;;;;;;22.50;53.30;;;;;;5098379;28;1984;-42
2022/01/29 01:09:01;;;;;;;;;;;22.50;53.20;;;;;;5098475;28;936;-41
2022/01/29 01:11:28;;;;;;;;;;;22.50;53.30;;;;;;5098748;28;1030;-42
2022/01/29 01:13:54;;;;;;;;;;;22.50;53.20;;;;;;5098127;28;856;-42
2022/01/29 01:16:21;;;;;;;;;;;22.50;53.30;;;;;;5098785;28;1048;-42
2022/01/29 01:18:48;;;;;;;;;;;22.50;53.30;;;;;;5098293;28;1017;-43
2022/01/29 01:21:16;;;;;;;;;;;22.50;53.30;;;;;;5097464;28;1007;-41
2022/01/29 01:23:43;;;;;;;;;;;22.50;53.40;;;;;;5098047;28;1019;-42
2022/01/29 01:26:09;;;;;;;;;;;22.50;53.40;;;;;;5098283;28;982;-41
2022/01/29 01:28:36;;;;;;;;;;;22.40;53.30;;;;;;5097222;28;1898;-41
2022/01/29 01:31:03;;;;;;;;;;;22.50;53.40;;;;;;5098018;28;1015;-41
2022/01/29 01:33:29;;;;;;;;;;;22.50;53.30;;;;;;5097979;28;964;-42
2022/01/29 01:36:00;;;;;;;;;;;22.40;53.20;;;;;;5098341;28;1002;-41
2022/01/29 01:38:35;;;;;;;;;;;22.40;53.20;;;;;;5098021;28;1493;-42
2022/01/29 01:41:06;;;;;;;;;;;22.40;53.20;;;;;;5097877;28;1076;-41
2022/01/29 01:43:33;;;;;;;;;;;22.40;53.20;;;;;;5098157;28;936;-41
2022/01/29 01:46:00;;;;;;;;;;;22.40;53.30;;;;;;5098271;28;995;-43
2022/01/29 01:48:26;;;;;;;;;;;22.40;53.20;;;;;;5098220;28;1978;-42
2022/01/29 01:50:53;;;;;;;;;;;22.40;53.20;;;;;;5098529;28;1356;-43
2022/01/29 01:53:20;;;;;;;;;;;22.40;53.30;;;;;;5098343;28;956;-44
2022/01/29 01:55:49;;;;;;;;;;;22.40;53.20;;;;;;5097460;28;1060;-44
2022/01/29 01:58:16;;;;;;;;;;;22.40;53.20;;;;;;5098334;28;992;-44
2022/01/29 02:00:42;;;;;;;;;;;22.40;53.30;;;;;;5098054;28;955;-43
2022/01/29 02:03:09;;;;;;;;;;;22.40;54.40;;;;;;5097883;28;989;-42
2022/01/29 02:05:36;;;;;;;;;;;22.30;53.20;;;;;;5097720;28;980;-49
2022/01/29 02:08:03;;;;;;;;;;;22.30;53.20;;;;;;5097750;28;1984;-42
2022/01/29 02:10:30;;;;;;;;;;;22.30;53.20;;;;;;5098136;28;1015;-42
2022/01/29 02:13:02;;;;;;;;;;;22.30;53.30;;;;;;5098691;28;1002;-45
2022/01/29 02:15:29;;;;;;;;;;;22.30;53.20;;;;;;5098886;28;980;-44
2022/01/29 02:17:56;;;;;;;;;;;22.30;53.20;;;;;;5099097;28;948;-44
2022/01/29 02:20:24;;;;;;;;;;;22.30;53.40;;;;;;5098579;28;876;-44
2022/01/29 02:22:52;;;;;;;;;;;22.20;53.30;;;;;;5099022;28;987;-43
2022/01/29 02:25:28;;;;;;;;;;;22.20;53.20;;;;;;5098368;28;1024;-42
2022/01/29 02:27:55;;;;;;;;;;;22.20;53.30;;;;;;5098279;28;1906;-42
2022/01/29 02:30:22;;;;;;;;;;;22.20;53.30;;;;;;5098512;28;995;-42
2022/01/29 02:32:49;;;;;;;;;;;22.20;53.30;;;;;;5098636;28;1039;-42
2022/01/29 02:35:16;;;;;;;;;;;22.20;53.30;;;;;;5098221;28;1034;-42
2022/01/29 02:37:42;;;;;;;;;;;22.20;53.30;;;;;;5098271;28;1174;-42
2022/01/29 02:40:11;;;;;;;;;;;22.20;53.30;;;;;;5099391;28;951;-42
2022/01/29 02:42:38;;;;;;;;;;;22.20;53.30;;;;;;5102860;28;1020;-42
2022/01/29 02:45:05;;;;;;;;;;;22.20;53.30;;;;;;5102439;28;935;-42
2022/01/29 02:47:33;;;;;;;;;;;22.20;53.30;;;;;;5102017;28;1886;-43
2022/01/29 02:49:59;;;;;;;;;;;22.20;53.20;;;;;;5102241;28;1188;-41
2022/01/29 02:52:26;;;;;;;;;;;22.20;53.30;;;;;;5102480;28;1003;-43
2022/01/29 02:54:53;;;;;;;;;;;22.20;53.30;;;;;;5102833;28;1050;-42
2022/01/29 02:57:21;;;;;;;;;;;22.10;53.30;;;;;;5102292;28;916;-42
2022/01/29 02:59:49;;;;;;;;;;;22.10;53.40;;;;;;5101648;28;943;-42
2022/01/29 03:02:16;;;;;;;;;;;22.10;53.30;;;;;;5101822;28;1015;-42
2022/01/29 03:04:42;;;;;;;;;;;22.10;53.30;;;;;;5102196;28;888;-42
2022/01/29 03:10:25;;;;;;;;;;;22.10;53.30;;;;;;5101478;28;580;-43
2022/01/29 03:12:53;;;;;;;;;;;22.10;53.40;;;;;;5101934;28;1019;-45
2022/01/29 03:15:20;;;;;;;;;;;22.10;53.50;;;;;;5101758;28;984;-43
2022/01/29 03:17:48;;;;;;;;;;;22.10;53.40;;;;;;5102087;28;1054;-43
2022/01/29 03:20:15;;;;;;;;;;;22.10;53.50;;;;;;5101882;28;991;-44
2022/01/29 03:22:41;;;;;;;;;;;22.10;53.40;;;;;;5101650;28;1074;-42
2022/01/29 03:25:08;;;;;;;;;;;22.10;53.40;;;;;;5101895;28;880;-47
2022/01/29 03:27:35;;;;;;;;;;;22.10;53.50;;;;;;5101620;28;1902;-43
2022/01/29 03:30:05;;;;;;;;;;;22.10;53.50;;;;;;5102029;28;955;-42
2022/01/29 03:32:31;;;;;;;;;;;22.10;53.50;;;;;;5101626;28;1788;-43
2022/01/29 03:34:58;;;;;;;;;;;22.00;53.40;;;;;;5101184;28;976;-51
2022/01/29 03:37:25;;;;;;;;;;;22.00;53.40;;;;;;5101867;28;1011;-42
2022/01/29 03:39:53;;;;;;;;;;;22.00;53.40;;;;;;5101096;28;915;-43
2022/01/29 03:42:19;;;;;;;;;;;22.00;53.50;;;;;;5101772;28;1876;-42
2022/01/29 03:44:48;;;;;;;;;;;22.00;53.50;;;;;;5101253;28;1038;-44
2022/01/29 03:47:16;;;;;;;;;;;22.00;53.50;;;;;;5101145;28;1967;-48
2022/01/29 03:49:42;;;;;;;;;;;22.00;53.60;;;;;;5100883;28;1117;-42
2022/01/29 03:52:09;;;;;;;;;;;22.00;53.60;;;;;;5100477;28;1026;-42
2022/01/29 03:54:36;;;;;;;;;;;22.00;53.50;;;;;;5101257;28;981;-43
2022/01/29 03:57:03;;;;;;;;;;;22.00;53.50;;;;;;5101519;28;1023;-43
2022/01/29 03:59:30;;;;;;;;;;;22.00;53.50;;;;;;5101083;28;928;-42
2022/01/29 04:01:57;;;;;;;;;;;22.00;53.50;;;;;;5101004;28;955;-43
2022/01/29 04:04:25;;;;;;;;;;;22.00;53.50;;;;;;5100967;28;954;-42
2022/01/29 04:06:52;;;;;;;;;;;22.00;53.50;;;;;;5100987;28;968;-41
2022/01/29 04:09:20;;;;;;;;;;;21.90;53.50;;;;;;5101116;28;1980;-43
2022/01/29 04:11:46;;;;;;;;;;;21.90;53.50;;;;;;5100945;28;1004;-43
2022/01/29 04:14:18;;;;;;;;;;;21.90;53.50;;;;;;5100635;28;868;-42
2022/01/29 04:16:45;;;;;;;;;;;22.00;53.50;;;;;;5100266;28;939;-43
2022/01/29 04:19:12;;;;;;;;;;;21.90;53.60;;;;;;5100715;28;980;-45
2022/01/29 04:21:41;;;;;;;;;;;21.90;53.50;;;;;;5100852;28;944;-42
2022/01/29 04:24:08;;;;;;;;;;;21.90;53.50;;;;;;5101033;28;2044;-42
2022/01/29 04:26:35;;;;;;;;;;;21.90;53.50;;;;;;5100531;28;1003;-43
2022/01/29 04:29:03;;;;;;;;;;;21.90;53.30;;;;;;5100511;28;1898;-43
2022/01/29 04:31:37;;;;;;;;;;;21.90;53.50;;;;;;5099946;28;932;-43
2022/01/29 04:34:04;;;;;;;;;;;21.90;53.40;;;;;;5100280;28;940;-46
2022/01/29 04:36:31;;;;;;;;;;;21.90;53.30;;;;;;5100270;28;991;-42
2022/01/29 04:38:59;;;;;;;;;;;21.90;53.50;;;;;;5100230;28;988;-45
2022/01/29 04:41:26;;;;;;;;;;;21.90;53.50;;;;;;5100129;28;992;-43
2022/01/29 04:43:53;;;;;;;;;;;21.90;53.40;;;;;;5100078;28;959;-43
2022/01/29 04:46:20;;;;;;;;;;;21.90;53.40;;;;;;5100113;28;1015;-43
2022/01/29 04:48:46;;;;;;;;;;;21.90;53.50;;;;;;5099613;28;1982;-42
2022/01/29 04:51:13;;;;;;;;;;;21.90;53.40;;;;;;5099650;28;1085;-43
2022/01/29 04:53:40;;;;;;;;;;;21.80;53.40;;;;;;5099516;28;1143;-44
2022/01/29 04:56:08;;;;;;;;;;;21.90;53.50;;;;;;5099583;28;994;-43
2022/01/29 04:58:35;;;;;;;;;;;21.90;53.50;;;;;;5099877;28;939;-43
2022/01/29 05:01:02;;;;;;;;;;;21.80;53.40;;;;;;5099673;28;988;-42
2022/01/29 05:03:29;;;;;;;;;;;21.80;53.40;;;;;;5099450;28;952;-43
2022/01/29 05:05:56;;;;;;;;;;;21.80;53.40;;;;;;5099466;28;1012;-45
2022/01/29 05:08:22;;;;;;;;;;;21.80;53.30;;;;;;5099711;28;1910;-46
2022/01/29 05:10:49;;;;;;;;;;;21.80;53.40;;;;;;5098800;28;1008;-43
2022/01/29 05:13:21;;;;;;;;;;;21.80;53.40;;;;;;5099312;28;951;-43
2022/01/29 05:16:01;;;;;;;;;;;21.80;53.40;;;;;;5099558;28;974;-49
2022/01/29 05:26:52;;;;;;;;;;;21.80;53.40;;;;;;5098948;28;970;-44
2022/01/29 05:29:20;;;;;;;;;;;21.80;53.50;;;;;;5098725;28;1980;-44
2022/01/29 05:31:50;;;;;;;;;;;21.80;53.40;;;;;;5098776;28;959;-41
2022/01/29 05:34:17;;;;;;;;;;;21.80;53.40;;;;;;5099070;28;960;-43
2022/01/29 05:36:44;;;;;;;;;;;21.80;53.40;;;;;;5099172;28;1009;-43
2022/01/29 05:39:11;;;;;;;;;;;21.80;53.40;;;;;;5098329;28;972;-42
2022/01/29 05:41:38;;;;;;;;;;;21.80;53.60;;;;;;5098595;28;980;-42
2022/01/29 05:44:05;;;;;;;;;;;21.70;53.40;;;;;;5098407;28;940;-42
2022/01/29 05:46:33;;;;;;;;;;;21.80;53.20;;;;;;5098310;28;1015;-42
2022/01/29 05:49:00;;;;;;;;;;;21.80;53.20;;;;;;5098239;28;1898;-42
2022/01/29 05:51:29;;;;;;;;;;;21.80;53.30;;;;;;5097700;28;1291;-42
2022/01/29 05:53:56;;;;;;;;;;;21.80;53.40;;;;;;5098825;28;1022;-42
2022/01/29 05:56:23;;;;;;;;;;;21.70;53.40;;;;;;5098372;28;993;-43
2022/01/29 05:58:49;;;;;;;;;;;21.70;53.40;;;;;;5098398;28;936;-43
2022/01/29 06:01:16;;;;;;;;;;;21.70;53.30;;;;;;5097931;28;968;-43
2022/01/29 06:03:44;;;;;;;;;;;21.80;53.40;;;;;;5097700;28;1015;-43
2022/01/29 06:06:11;;;;;;;;;;;21.70;53.30;;;;;;5098009;28;984;-42
2022/01/29 06:08:38;;;;;;;;;;;21.70;53.40;;;;;;5097861;28;1984;-44
2022/01/29 06:11:04;;;;;;;;;;;21.70;53.30;;;;;;5098528;28;951;-43
2022/01/29 06:13:31;;;;;;;;;;;21.70;53.40;;;;;;5099316;28;1034;-43
2022/01/29 06:15:58;;;;;;;;;;;21.70;53.30;;;;;;5097946;28;992;-43
2022/01/29 06:18:25;;;;;;;;;;;21.70;53.30;;;;;;5098452;28;994;-42
2022/01/29 06:20:54;;;;;;;;;;;21.70;53.30;;;;;;5098484;28;947;-45
2022/01/29 06:23:28;;;;;;;;;;;21.70;53.30;;;;;;5098303;28;1047;-42
2022/01/29 06:25:55;;;;;;;;;;;21.70;53.40;;;;;;5097931;28;981;-42
2022/01/29 06:28:22;;;;;;;;;;;21.70;53.40;;;;;;5098257;28;1898;-43
2022/01/29 06:30:48;;;;;;;;;;;21.70;53.30;;;;;;5097429;28;1021;-42
2022/01/29 06:33:15;;;;;;;;;;;21.70;53.40;;;;;;5097827;28;936;-42
2022/01/29 06:35:43;;;;;;;;;;;21.70;53.30;;;;;;5097746;28;988;-43
2022/01/29 06:38:12;;;;;;;;;;;21.70;53.30;;;;;;5098254;28;1141;-43
2022/01/29 06:40:39;;;;;;;;;;;21.70;53.30;;;;;;5097578;28;1003;-43
2022/01/29 06:43:06;;;;;;;;;;;21.70;53.30;;;;;;5096442;28;1091;-42
2022/01/29 06:45:33;;;;;;;;;;;21.70;53.40;;;;;;5097353;28;968;-44
2022/01/29 06:47:59;;;;;;;;;;;21.60;53.30;;;;;;5097598;28;1969;-43
2022/01/29 06:50:26;;;;;;;;;;;21.60;53.30;;;;;;5097114;28;1059;-43
2022/01/29 06:52:53;;;;;;;;;;;21.60;53.40;;;;;;5097894;28;943;-45
2022/01/29 06:55:21;;;;;;;;;;;21.60;53.30;;;;;;5097699;28;1004;-42
2022/01/29 06:57:48;;;;;;;;;;;21.60;53.40;;;;;;5097779;28;967;-41
2022/01/29 07:00:16;;;;;;;;;;;21.60;53.30;;;;;;5097362;28;939;-43
2022/01/29 07:02:42;;;;;;;;;;;21.60;53.30;;;;;;5097419;28;988;-43
2022/01/29 07:05:10;;;;;;;;;;;21.60;53.30;;;;;;5097791;28;977;-45
2022/01/29 07:07:37;;;;;;;;;;;21.60;53.30;;;;;;5097848;28;1042;-42
2022/01/29 07:10:04;;;;;;;;;;;21.60;53.40;;;;;;5097324;28;1905;-43
2022/01/29 07:12:32;;;;;;;;;;;21.60;53.30;;;;;;5098213;28;975;-42
2022/01/29 07:14:59;;;;;;;;;;;21.60;53.30;;;;;;5097410;28;984;-42
2022/01/29 07:17:26;;;;;;;;;;;21.60;53.20;;;;;;5097565;28;1019;-42
2022/01/29 07:19:55;;;;;;;;;;;21.60;53.40;;;;;;5097081;28;916;-43
2022/01/29 07:22:22;;;;;;;;;;;21.60;54.50;;;;;;5098116;28;979;-42
2022/01/29 07:24:48;;;;;;;;;;;21.60;53.40;;;;;;5097047;28;1003;-42
2022/01/29 07:27:16;;;;;;;;;;;21.60;53.40;;;;;;5098646;28;1009;-42
2022/01/29 07:29:44;;;;;;;;;;;21.60;53.50;;;;;;5100882;28;1901;-43
2022/01/29 07:32:11;;;;;;;;;;;21.60;53.40;;;;;;5100600;28;1018;-42
2022/01/29 07:34:38;;;;;;;;;;;21.60;53.40;;;;;;5100901;28;1016;-43
2022/01/29 07:37:05;;;;;;;;;;;21.50;53.40;;;;;;5100245;28;924;-44
2022/01/29 07:39:32;;;;;;;;;;;21.50;53.40;;;;;;5100851;28;991;-43
2022/01/29 07:41:59;;;;;;;;;;;21.50;53.40;;;;;;5100776;28;1004;-43
2022/01/29 07:44:26;;;;;;;;;;;21.50;53.30;;;;;;5099364;28;972;-42
2022/01/29 07:46:54;;;;;;;;;;;21.50;53.30;;;;;;5100026;28;944;-43
2022/01/29 07:49:20;;;;;;;;;;;21.50;53.40;;;;;;5099914;28;1910;-42
2022/01/29 07:51:47;;;;;;;;;;;21.50;53.30;;;;;;5100146;28;1056;-43
2022/01/29 07:54:14;;;;;;;;;;;21.50;53.40;;;;;;5099299;28;940;-42
2022/01/29 07:56:41;;;;;;;;;;;21.50;53.30;;;;;;5099277;28;1013;-43
2022/01/29 07:59:07;;;;;;;;;;;21.50;53.20;;;;;;5098319;28;973;-43
2022/01/29 08:01:34;;;;;;;;;;;21.50;53.20;;;;;;5099895;28;967;-43
2022/01/29 08:04:02;;;;;;;;;;;21.50;53.20;;;;;;5099824;28;1026;-44
2022/01/29 08:06:30;;;;;;;;;;;21.50;53.30;;;;;;5099605;28;940;-42
2022/01/29 08:08:57;;;;;;;;;;;21.50;53.20;;;;;;5099524;28;1981;-45
2022/01/29 08:11:24;;;;;;;;;;;21.60;53.20;;;;;;5098784;28;1043;-43
2022/01/29 08:13:51;;;;;;;;;;;21.60;53.20;;;;;;5099762;28;1011;-43
2022/01/29 08:16:18;;;;;;;;;;;21.60;53.30;;;;;;5099479;28;1038;-42
2022/01/29 08:18:45;;;;;;;;;;;21.60;53.40;;;;;;5099917;28;1015;-42
2022/01/29 08:21:14;;;;;;;;;;;21.70;53.50;;;;;;5099785;28;1007;-42
2022/01/29 08:23:41;;;;;;;;;;;21.80;53.50;;;;;;5099904;28;1012;-42
2022/01/29 08:26:08;;;;;;;;;;;21.80;53.40;;;;;;5099961;28;1119;-43
2022/01/29 08:28:34;;;;;;;;;;;21.90;53.40;;;;;;5098956;28;1906;-41
2022/01/29 08:31:01;;;;;;;;;;;21.90;53.30;;;;;;5099387;28;972;-41
2022/01/29 08:33:28;;;;;;;;;;;22.00;53.30;;;;;;5098586;28;1024;-41
2022/01/29 08:35:57;;;;;;;;;;;22.00;53.10;;;;;;5099071;28;1018;-41
2022/01/29 08:38:25;;;;;;;;;;;22.00;53.20;;;;;;5098803;28;943;-41
2022/01/29 08:40:52;;;;;;;;;;;22.00;53.20;;;;;;5098352;28;979;-41
2022/01/29 08:43:19;;;;;;;;;;;22.10;53.10;;;;;;5099422;28;1009;-41
2022/01/29 08:45:46;;;;;;;;;;;22.00;53.00;;;;;;5098357;28;1536;-40
2022/01/29 08:48:13;;;;;;;;;;;22.10;53.00;;;;;;5098325;28;956;-40
2022/01/29 08:50:40;;;;;;;;;;;22.10;53.00;;;;;;5098681;28;1957;-41
2022/01/29 08:53:07;;;;;;;;;;;22.10;53.00;;;;;;5098099;28;1102;-41
2022/01/29 08:55:37;;;;;;;;;;;22.10;53.10;;;;;;5097766;28;990;-41
2022/01/29 08:58:04;;;;;;;;;;;22.10;53.00;;;;;;5098440;28;1002;-41
2022/01/29 09:00:31;;;;;;;;;;;22.10;53.10;;;;;;5098150;28;916;-40
2022/01/29 09:02:58;;;;;;;;;;;22.10;53.00;;;;;;5098331;28;985;-42
2022/01/29 09:05:25;;;;;;;;;;;22.10;53.00;;;;;;5098419;28;984;-42
2022/01/29 09:07:51;;;;;;;;;;;22.10;53.00;;;;;;5098244;28;981;-41
2022/01/29 09:10:18;;;;;;;;;;;22.10;53.00;;;;;;5098184;28;1981;-40
2022/01/29 09:12:47;;;;;;;;;;;22.20;53.00;;;;;;5098662;28;912;-41
2022/01/29 09:15:13;;;;;;;;;;;22.20;53.10;;;;;;5098154;28;992;-41
2022/01/29 09:17:41;;;;;;;;;;;22.30;53.00;;;;;;5098127;28;966;-40
2022/01/29 09:20:09;;;;;;;;;;;22.20;53.00;;;;;;5097005;28;1054;-42
2022/01/29 09:22:35;;;;;;;;;;;22.30;53.00;;;;;;5097356;28;999;-41
2022/01/29 09:25:02;;;;;;;;;;;22.30;53.00;;;;;;5096998;28;1039;-47
2022/01/29 09:27:30;;;;;;;;;;;22.30;53.10;;;;;;5097672;28;1771;-45
2022/01/29 09:29:58;;;;;;;;;;;22.30;53.00;;;;;;5097504;28;1987;-45
2022/01/29 09:32:25;;;;;;;;;;;22.20;53.00;;;;;;5097707;28;974;-44
2022/01/29 09:34:52;;;;;;;;;;;22.20;53.10;;;;;;5097896;28;993;-45
2022/01/29 09:37:18;;;;;;;;;;;22.20;53.10;;;;;;5097507;28;931;-43
2022/01/29 09:39:45;;;;;;;;;;;22.20;53.20;;;;;;5096438;28;1108;-45
2022/01/29 09:42:12;;;;;;;;;;;22.20;53.30;;;;;;5095530;28;1210;-46
2022/01/29 09:44:39;;;;;;;;;;;22.20;53.30;;;;;;5096720;28;985;-45
2022/01/29 09:47:07;;;;;;;;;;;22.20;53.30;;;;;;5097321;28;910;-45
2022/01/29 09:49:35;;;;;;;;;;;22.20;53.40;;;;;;5096743;28;1988;-43
2022/01/29 09:52:02;;;;;;;;;;;22.20;53.30;;;;;;5097175;28;951;-45
2022/01/29 09:54:29;;;;;;;;;;;22.20;53.10;;;;;;5096824;28;1018;-47
2022/01/29 09:56:55;;;;;;;;;;;22.20;53.30;;;;;;5096595;28;1018;-47
2022/01/29 09:59:22;;;;;;;;;;;22.20;53.10;;;;;;5096633;28;931;-46
2022/01/29 10:01:49;;;;;;;;;;;22.20;53.30;;;;;;5097285;28;945;-47
2022/01/29 10:04:17;;;;;;;;;;;22.20;53.40;;;;;;5095432;28;1687;-47
2022/01/29 10:06:47;;;;;;;;;;;22.30;53.30;;;;;;5096279;28;964;-47
2022/01/29 10:09:28;;;;;;;;;;;22.30;53.40;;;;;;5097298;28;1910;-47
2022/01/29 10:12:15;;;;;;;;;;;22.30;53.50;;;;;;5096390;28;1939;-45
2022/01/29 10:15:03;;;;;;;;;;;22.40;53.40;;;;;;5097565;28;1000;-45
2022/01/29 10:17:39;;;;;;;;;;;22.40;53.50;;;;;;5090245;28;1270;-47
2022/01/29 10:20:08;;;;;;;;;;;22.40;53.60;;;;;;5094870;28;980;-46
2022/01/29 10:22:35;;;;;;;;;;;22.40;53.50;;;;;;5095670;28;1024;-46
2022/01/29 10:25:04;;;;;;;;;;;22.40;53.70;;;;;;5095564;28;956;-46
2022/01/29 10:27:31;;;;;;;;;;;22.40;53.70;;;;;;5094766;28;1248;-46
2022/01/29 10:29:59;;;;;;;;;;;22.40;53.60;;;;;;5094976;28;1902;-46
2022/01/29 10:32:26;;;;;;;;;;;22.40;53.60;;;;;;5095266;28;987;-46
2022/01/29 10:34:54;;;;;;;;;;;22.40;53.80;;;;;;5094956;28;885;-46
2022/01/29 10:37:23;;;;;;;;;;;22.40;53.60;;;;;;5094888;28;924;-34
2022/01/29 10:39:50;;;;;;;;;;;22.30;53.90;;;;;;5094829;28;1007;-34
2022/01/29 10:42:18;;;;;;;;;;;22.30;54.10;;;;;;5094764;28;995;-35
2022/01/29 10:44:46;;;;;;;;;;;22.30;54.20;;;;;;5095495;28;1011;-36
2022/01/29 10:47:13;;;;;;;;;;;22.30;54.00;;;;;;5095457;28;1008;-33
2022/01/29 10:49:45;;;;;;;;;;;22.30;54.00;;;;;;5096705;28;1894;-35
2022/01/29 10:52:12;;;;;;;;;;;22.20;54.00;;;;;;5096001;28;1007;-34
2022/01/29 10:54:41;;;;;;;;;;;22.30;54.50;;;;;;5096809;28;933;-35
2022/01/29 10:57:09;;;;;;;;;;;22.30;54.40;;;;;;5096937;28;991;-33
2022/01/29 10:59:36;;;;;;;;;;;22.20;54.30;;;;;;5097246;28;939;-33
2022/01/29 11:02:05;;;;;;;;;;;22.20;54.30;;;;;;5098301;28;1008;-37
2022/01/29 11:04:32;;;;;;;;;;;22.20;54.30;;;;;;5100941;28;933;-39
2022/01/29 11:07:02;;;;;;;;;;;22.20;54.30;;;;;;5099793;28;932;-39
2022/01/29 11:09:30;;;;;;;;;;;22.10;54.30;;;;;;5100303;28;1910;-39
2022/01/29 11:12:00;;;;;;;;;;;22.10;54.20;;;;;;5100530;28;966;-39
2022/01/29 11:14:27;;;;;;;;;;;22.20;55.20;;;;;;5100162;28;968;-38
2022/01/29 11:16:54;;;;;;;;;;;22.20;54.20;;;;;;5099628;28;970;-38
2022/01/29 11:19:21;;;;;;;;;;;22.10;54.00;;;;;;5099593;28;884;-40
2022/01/29 11:21:50;;;;;;;;;;;22.10;53.90;;;;;;5100176;28;1032;-39
2022/01/29 11:24:18;;;;;;;;;;;22.10;53.80;;;;;;5100887;28;948;-39
2022/01/29 11:26:45;;;;;;;;;;;22.20;53.80;;;;;;5100783;28;956;-38
2022/01/29 11:29:33;;;;;;;;;;;22.10;53.80;;;;;;5100198;28;929;-39
2022/01/29 11:32:18;;;;;;;;;;;22.20;53.80;;;;;;5100350;28;970;-39
2022/01/29 11:35:00;;;;;;;;;;;22.10;53.70;;;;;;5098075;28;979;-42
2022/01/29 11:37:37;;;;;;;;;;;22.10;53.70;;;;;;5098490;28;1062;-39
2022/01/29 11:40:14;;;;;;;;;;;22.10;53.70;;;;;;5099967;28;996;-39
2022/01/29 11:42:52;;;;;;;;;;;22.10;53.70;;;;;;5099468;28;1038;-39
2022/01/29 11:45:38;;;;;;;;;;;22.10;53.80;;;;;;5099948;28;1019;-39
2022/01/29 11:48:05;;;;;;;;;;;22.10;53.70;;;;;;5099419;28;1008;-38
2022/01/29 11:50:45;;;;;;;;;;;22.10;53.70;;;;;;5099764;28;1989;-38
2022/01/29 11:53:13;;;;;;;;;;;22.10;53.70;;;;;;5099575;28;980;-39
2022/01/29 11:55:40;;;;;;;;;;;22.10;53.70;;;;;;5098520;28;984;-40
2022/01/29 11:58:18;;;;;;;;;;;22.10;53.70;;;;;;5098308;28;1044;-39
2022/01/29 12:00:46;;;;;;;;;;;22.10;53.70;;;;;;5098125;28;987;-39
2022/01/29 12:03:28;;;;;;;;;;;22.10;53.70;;;;;;5098005;28;984;-39
2022/01/29 12:06:22;;;;;;;;;;;22.10;53.70;;;;;;5097709;28;1284;-39
2022/01/29 12:09:19;;;;;;;;;;;22.00;53.60;;;;;;5078936;28;1326;-39
2022/01/29 12:12:06;;;;;;;;;;;22.10;53.70;;;;;;5097073;28;1910;-39
2022/01/29 12:14:34;;;;;;;;;;;22.00;53.60;;;;;;5096427;28;1022;-38
2022/01/29 12:17:02;;;;;;;;;;;22.00;53.60;;;;;;5096930;28;979;-39
2022/01/29 12:19:35;;;;;;;;;;;22.00;53.60;;;;;;5097497;28;1035;-39
2022/01/29 12:22:08;;;;;;;;;;;22.10;53.70;;;;;;5097815;28;1017;-39
2022/01/29 12:24:35;;;;;;;;;;;22.00;53.60;;;;;;5097663;28;964;-38
2022/01/29 12:27:01;;;;;;;;;;;22.10;53.60;;;;;;5097668;28;973;-40
2022/01/29 12:29:28;;;;;;;;;;;22.00;53.50;;;;;;5097983;28;980;-38
2022/01/29 12:31:57;;;;;;;;;;;22.00;53.50;;;;;;5097594;28;1909;-39
2022/01/29 12:34:24;;;;;;;;;;;22.00;53.50;;;;;;5097538;28;925;-39
2022/01/29 12:36:51;;;;;;;;;;;22.10;53.50;;;;;;5096870;28;941;-39
2022/01/29 12:39:22;;;;;;;;;;;22.00;53.50;;;;;;5096078;28;1131;-39
2022/01/29 12:42:01;;;;;;;;;;;22.00;53.50;;;;;;5097236;28;921;-39
2022/01/29 12:44:27;;;;;;;;;;;22.10;53.50;;;;;;5097748;28;996;-39
2022/01/29 12:46:54;;;;;;;;;;;22.00;53.30;;;;;;5096733;28;996;-40
2022/01/29 12:49:22;;;;;;;;;;;22.10;53.40;;;;;;5096424;28;1031;-38
2022/01/29 12:51:51;;;;;;;;;;;22.00;53.30;;;;;;5096657;28;2116;-39
2022/01/29 12:54:18;;;;;;;;;;;22.00;53.30;;;;;;5096580;28;1339;-39
2022/01/29 12:56:45;;;;;;;;;;;22.00;53.30;;;;;;5096590;28;973;-41
2022/01/29 12:59:12;;;;;;;;;;;22.10;53.30;;;;;;5097081;28;999;-42
2022/01/29 13:01:40;;;;;;;;;;;22.10;53.30;;;;;;5096285;28;1010;-42
2022/01/29 13:04:08;;;;;;;;;;;22.00;53.30;;;;;;5097421;28;945;-42
2022/01/29 13:06:36;;;;;;;;;;;22.00;53.30;;;;;;5095890;28;1888;-42
2022/01/29 13:09:16;;;;;;;;;;;22.00;53.30;;;;;;5097558;28;1024;-39
2022/01/29 13:11:43;;;;;;;;;;;22.00;53.30;;;;;;5095967;28;1910;-39
2022/01/29 13:14:13;;;;;;;;;;;22.00;53.20;;;;;;5096047;28;1055;-39
2022/01/29 13:16:40;;;;;;;;;;;22.00;53.20;;;;;;5097723;28;989;-39
2022/01/29 13:19:07;;;;;;;;;;;22.00;53.20;;;;;;5098452;28;976;-38
2022/01/29 13:21:35;;;;;;;;;;;22.00;53.20;;;;;;5097872;28;989;-42
2022/01/29 13:24:23;;;;;;;;;;;22.00;53.20;;;;;;5097366;28;981;-45
2022/01/29 13:26:58;;;;;;;;;;;22.00;53.30;;;;;;5095773;28;2051;-36
2022/01/29 13:29:32;;;;;;;;;;;22.00;53.20;;;;;;5095911;28;952;-37
2022/01/29 13:31:58;;;;;;;;;;;22.00;53.20;;;;;;5095115;28;1985;-36
2022/01/29 13:34:26;;;;;;;;;;;22.00;53.20;;;;;;5096945;28;1007;-35
2022/01/29 13:36:54;;;;;;;;;;;22.00;53.10;;;;;;5096680;28;968;-36
2022/01/29 13:39:20;;;;;;;;;;;22.00;53.10;;;;;;5094159;28;897;-34
2022/01/29 13:41:47;;;;;;;;;;;22.00;53.10;;;;;;5093826;28;985;-33
2022/01/29 13:44:14;;;;;;;;;;;22.10;53.10;;;;;;5094337;28;941;-34
2022/01/29 13:46:41;;;;;;;;;;;22.00;53.00;;;;;;5094810;28;983;-34
2022/01/29 13:49:08;;;;;;;;;;;22.00;53.00;;;;;;5095151;28;956;-33
2022/01/29 13:51:36;;;;;;;;;;;22.00;53.00;;;;;;5094884;28;1980;-34
2022/01/29 13:54:06;;;;;;;;;;;22.10;53.00;;;;;;5094844;28;992;-36
2022/01/29 13:56:33;;;;;;;;;;;22.10;53.10;;;;;;5094310;28;994;-33
2022/01/29 13:59:02;;;;;;;;;;;22.10;53.10;;;;;;5095234;28;766;-33
2022/01/29 14:01:36;;;;;;;;;;;22.10;53.10;;;;;;5093404;28;960;-33
2022/01/29 14:04:03;;;;;;;;;;;22.00;53.00;;;;;;5094241;28;1018;-32
2022/01/29 14:06:32;;;;;;;;;;;22.00;52.90;;;;;;5093570;28;1140;-35
2022/01/29 14:09:19;;;;;;;;;;;22.00;52.90;;;;;;5094626;28;987;-35
2022/01/29 14:12:01;;;;;;;;;;;22.10;53.00;;;;;;5094963;28;1914;-32
2022/01/29 14:14:29;;;;;;;;;;;22.10;53.00;;;;;;5095107;28;999;-43
2022/01/29 14:16:56;;;;;;;;;;;22.10;53.00;;;;;;5094482;28;1071;-46
2022/01/29 14:19:24;;;;;;;;;;;22.00;53.00;;;;;;5094779;28;972;-44
2022/01/29 14:21:51;;;;;;;;;;;22.00;52.90;;;;;;5094116;28;1035;-47
2022/01/29 14:24:18;;;;;;;;;;;22.00;52.90;;;;;;5094635;28;982;-44
2022/01/29 14:26:45;;;;;;;;;;;22.00;52.90;;;;;;5093044;28;944;-44
2022/01/29 14:29:14;;;;;;;;;;;22.00;52.90;;;;;;5093700;28;935;-45
2022/01/29 14:31:40;;;;;;;;;;;22.00;52.90;;;;;;5092421;28;1909;-46
2022/01/29 14:34:07;;;;;;;;;;;22.00;52.90;;;;;;5093332;28;937;-44
2022/01/29 14:36:34;;;;;;;;;;;22.00;52.90;;;;;;5094883;28;1021;-44
2022/01/29 14:39:01;;;;;;;;;;;22.00;52.80;;;;;;5097897;28;909;-44
2022/01/29 14:41:27;;;;;;;;;;;22.00;52.80;;;;;;5097385;28;996;-44
2022/01/29 14:43:54;;;;;;;;;;;22.00;52.80;;;;;;5098716;28;944;-46
2022/01/29 14:46:23;;;;;;;;;;;22.00;52.80;;;;;;5100197;28;997;-47
2022/01/29 14:48:51;;;;;;;;;;;22.10;52.80;;;;;;5100301;28;1018;-44
2022/01/29 14:51:18;;;;;;;;;;;22.00;52.70;;;;;;5099101;28;1905;-48
2022/01/29 14:53:45;;;;;;;;;;;22.00;52.70;;;;;;5101915;28;985;-42